createdAt,value
2019-01-25T00:02:56.616Z,41.77
2019-01-25T00:08:04.631Z,36.78
2019-01-25T00:13:12.777Z,40.18
2019-01-25T00:18:20.788Z,44.03
2019-01-25T00:23:29.184Z,47.32
2019-01-25T00:28:37.244Z,45.68
2019-01-25T00:33:45.344Z,46.46
2019-01-25T00:38:53.363Z,48.56
2019-01-25T00:44:01.456Z,47.28
2019-01-25T00:49:09.497Z,49.63
2019-01-25T00:54:18.008Z,49.20
2019-01-25T00:59:26.342Z,49.99
2019-01-25T01:04:34.436Z,48.37
2019-01-25T01:09:42.565Z,47.65
2019-01-25T01:14:50.637Z,47.42
2019-01-25T01:19:58.665Z,48.98
2019-01-25T01:25:06.951Z,44.79
2019-01-25T01:30:14.933Z,47.57
2019-01-25T01:35:23.094Z,49.40
2019-01-25T01:40:31.153Z,46.79
2019-01-25T01:45:39.503Z,47.12
2019-01-25T01:50:47.553Z,45.59
2019-01-25T01:55:55.809Z,45.68
2019-01-25T02:01:03.877Z,47.51
2019-01-25T02:06:12.075Z,44.73
2019-01-25T02:11:20.496Z,43.13
2019-01-25T02:16:28.566Z,45.78
2019-01-25T02:21:36.559Z,52.00
2019-01-25T02:26:44.693Z,46.83
2019-01-25T02:31:52.706Z,43.21
2019-01-25T02:37:00.822Z,46.66
2019-01-25T02:42:08.816Z,46.09
2019-01-25T02:47:17.368Z,43.94
2019-01-25T02:52:25.342Z,44.57
2019-01-25T02:57:33.517Z,43.43
2019-01-25T03:02:41.592Z,45.13
2019-01-25T03:07:49.882Z,41.84
2019-01-25T03:12:58.029Z,43.88
2019-01-25T03:18:06.184Z,42.74
2019-01-25T03:23:14.185Z,43.90
2019-01-25T03:28:22.307Z,47.19
2019-01-25T03:33:30.297Z,46.27
2019-01-25T03:38:38.449Z,43.50
2019-01-25T03:43:46.461Z,42.85
2019-01-25T03:48:54.529Z,46.48
2019-01-25T03:54:03.344Z,44.43
2019-01-25T03:59:11.441Z,40.91
2019-01-25T04:04:19.498Z,42.20
2019-01-25T04:09:27.605Z,37.74
2019-01-25T04:14:35.601Z,40.02
2019-01-25T04:19:43.833Z,40.44
2019-01-25T04:24:51.809Z,37.71
2019-01-25T04:29:59.889Z,38.39
2019-01-25T04:35:07.882Z,39.45
2019-01-25T04:40:15.953Z,41.61
2019-01-25T04:45:24.533Z,41.05
2019-01-25T04:50:32.607Z,38.64
2019-01-25T04:55:40.612Z,41.12
2019-01-25T05:00:48.746Z,39.33
2019-01-25T05:05:56.929Z,38.29
2019-01-25T05:11:05.014Z,38.40
2019-01-25T05:16:13.006Z,39.00
2019-01-25T05:21:21.144Z,39.36
2019-01-25T05:26:29.135Z,39.40
2019-01-25T05:31:37.248Z,37.84
2019-01-25T05:36:45.255Z,38.28
2019-01-25T05:41:53.826Z,37.56
2019-01-25T05:47:01.967Z,37.91
2019-01-25T05:52:10.047Z,40.28
2019-01-25T05:57:12.043Z,37.43
2019-01-25T06:02:20.174Z,39.65
2019-01-25T06:07:28.158Z,37.61
2019-01-25T06:12:36.410Z,39.57
2019-01-25T06:17:44.450Z,36.48
2019-01-25T06:22:52.576Z,34.73
2019-01-25T06:28:00.549Z,34.67
2019-01-25T06:33:08.669Z,39.29
2019-01-25T06:38:16.974Z,34.98
2019-01-25T06:43:25.285Z,39.90
2019-01-25T06:48:33.517Z,39.91
2019-01-25T06:53:47.713Z,40.53
2019-01-25T06:58:45.729Z,38.08
2019-01-25T07:03:53.963Z,33.56
2019-01-25T07:09:05.371Z,32.36
2019-01-25T07:14:02.181Z,38.94
2019-01-25T07:19:10.429Z,39.14
2019-01-25T07:24:18.642Z,41.94
2019-01-25T07:29:26.766Z,42.04
2019-01-25T07:34:47.405Z,40.45
2019-01-25T07:39:35.409Z,40.34
2019-01-25T07:44:42.365Z,40.10
2019-01-25T07:49:50.838Z,40.81
2019-01-25T07:54:58.977Z,40.50
2019-01-25T08:00:07.306Z,43.11
2019-01-25T08:05:15.867Z,36.83
2019-01-25T08:10:24.236Z,33.80
2019-01-25T08:15:37.094Z,34.87
2019-01-25T08:20:35.117Z,35.17
2019-01-25T08:25:43.591Z,35.28
2019-01-25T08:30:53.576Z,35.47
2019-01-25T08:35:54.585Z,34.29
2019-01-25T08:40:53.013Z,38.30
2019-01-25T08:46:00.316Z,33.60
2019-01-25T08:51:06.835Z,36.53
2019-01-25T08:56:16.100Z,37.04
2019-01-25T09:01:26.091Z,33.62
2019-01-25T09:06:24.585Z,39.46
2019-01-25T09:11:32.649Z,41.55
2019-01-25T09:16:40.769Z,33.75
2019-01-25T09:21:48.856Z,33.07
2019-01-25T09:26:56.957Z,32.31
2019-01-25T09:32:05.029Z,35.42
2019-01-25T09:37:13.106Z,32.74
2019-01-25T09:42:21.165Z,34.39
2019-01-25T09:47:29.369Z,32.62
2019-01-25T09:52:37.332Z,34.97
2019-01-25T09:57:43.945Z,35.63
2019-01-25T10:02:53.196Z,30.44
2019-01-25T10:08:01.841Z,29.22
2019-01-25T10:13:09.938Z,32.68
2019-01-25T10:18:18.038Z,32.53
2019-01-25T10:23:26.137Z,34.81
2019-01-25T10:28:34.321Z,35.10
2019-01-25T10:33:42.481Z,32.76
2019-01-25T10:38:50.713Z,35.65
2019-01-25T10:43:58.840Z,34.59
2019-01-25T10:49:06.931Z,38.58
2019-01-25T10:54:15.018Z,39.89
2019-01-25T10:59:23.163Z,40.13
2019-01-25T11:04:31.185Z,41.12
2019-01-25T11:09:39.262Z,45.18
2019-01-25T11:14:47.544Z,44.04
2019-01-25T11:19:55.625Z,43.30
2019-01-25T11:25:03.908Z,43.46
2019-01-25T11:30:12.051Z,43.26
2019-01-25T11:35:20.225Z,46.16
2019-01-25T11:40:28.457Z,41.62
2019-01-25T11:45:36.902Z,40.67
2019-01-25T11:50:45.048Z,39.69
2019-01-25T11:55:53.141Z,44.16
2019-01-25T12:01:01.840Z,37.81
2019-01-25T12:06:09.929Z,39.50
2019-01-25T12:11:18.045Z,38.23
2019-01-25T12:16:26.100Z,40.03
2019-01-25T12:21:34.383Z,43.65
2019-01-25T12:26:40.895Z,47.04
2019-01-25T12:31:49.019Z,43.71
2019-01-25T12:36:57.134Z,45.43
2019-01-25T12:42:05.240Z,45.42
2019-01-25T12:47:13.281Z,47.58
2019-01-25T12:52:21.578Z,50.00
2019-01-25T12:57:29.972Z,54.49
2019-01-25T13:02:38.057Z,52.81
2019-01-25T13:07:46.087Z,57.71
2019-01-25T13:12:54.318Z,52.15
2019-01-25T13:18:02.524Z,51.94
2019-01-25T13:23:10.721Z,49.23
2019-01-25T13:28:18.871Z,53.19
2019-01-25T13:33:26.908Z,56.83
2019-01-25T13:38:35.066Z,60.93
2019-01-25T13:43:43.420Z,56.76
2019-01-25T13:48:51.597Z,57.21
2019-01-25T13:53:59.714Z,51.94
2019-01-25T13:59:07.966Z,56.37
2019-01-25T14:04:15.945Z,58.73
2019-01-25T14:09:23.953Z,59.45
2019-01-25T14:14:32.029Z,64.87
2019-01-25T14:19:40.300Z,61.48
2019-01-25T14:24:48.429Z,64.88
2019-01-25T14:29:56.662Z,67.80
2019-01-25T14:35:04.839Z,67.54
2019-01-25T14:40:12.873Z,72.81
2019-01-25T14:45:21.159Z,72.92
2019-01-25T14:50:29.310Z,72.93
2019-01-25T14:55:37.956Z,70.86
2019-01-25T15:00:46.098Z,75.78
2019-01-25T15:05:54.582Z,76.45
2019-01-25T15:11:02.718Z,72.77
2019-01-25T15:16:10.845Z,78.93
2019-01-25T15:21:19.391Z,76.62
2019-01-25T15:26:28.042Z,76.92
2019-01-25T15:31:36.524Z,73.42
2019-01-25T15:36:44.687Z,65.71
2019-01-25T15:41:52.708Z,63.72
2019-01-25T15:47:01.342Z,62.08
2019-01-25T15:52:09.417Z,58.75
2019-01-25T15:57:17.503Z,62.13
2019-01-25T16:02:25.896Z,56.36
2019-01-25T16:07:33.118Z,61.36
2019-01-25T16:12:43.259Z,58.75
2019-01-25T16:17:53.101Z,57.75
2019-01-25T16:22:53.246Z,57.45
2019-01-25T16:28:03.537Z,57.08
2019-01-25T16:33:03.270Z,55.80
2019-01-25T16:38:13.257Z,61.49
2019-01-25T16:43:13.188Z,58.96
2019-01-25T16:48:13.427Z,57.24
2019-01-25T16:53:23.199Z,62.41
2019-01-25T16:58:23.498Z,63.07
2019-01-25T17:03:38.956Z,58.72
2019-01-25T17:08:38.102Z,58.71
2019-01-25T17:13:46.198Z,54.33
2019-01-25T17:18:54.387Z,56.88
2019-01-25T17:24:05.489Z,59.56
2019-01-25T17:29:04.630Z,56.53
2019-01-25T17:34:13.169Z,57.79
2019-01-25T17:39:27.871Z,56.47
2019-01-25T17:44:25.830Z,55.43
2019-01-25T17:49:33.953Z,53.33
2019-01-25T17:54:41.931Z,60.48
2019-01-25T17:59:50.101Z,62.69
2019-01-25T18:04:57.966Z,60.26
2019-01-25T18:10:06.705Z,58.77
2019-01-25T18:15:14.546Z,54.68
2019-01-25T18:20:22.738Z,59.46
2019-01-25T18:25:30.776Z,55.10
2019-01-25T18:30:39.530Z,53.80
2019-01-25T18:35:47.821Z,56.58
2019-01-25T18:40:56.006Z,57.10
2019-01-25T18:46:00.723Z,58.11
2019-01-25T18:51:09.656Z,55.20
2019-01-25T18:56:18.425Z,55.96
2019-01-25T19:01:20.005Z,54.99
2019-01-25T19:06:28.081Z,60.06
2019-01-25T19:11:36.261Z,61.40
2019-01-25T19:16:44.373Z,63.09
2019-01-25T19:21:52.458Z,60.61
2019-01-25T19:27:00.490Z,56.04
2019-01-25T19:32:08.662Z,54.63
2019-01-25T19:37:15.745Z,59.71
2019-01-25T19:42:24.357Z,60.08
2019-01-25T19:47:32.407Z,59.13
2019-01-25T19:52:40.326Z,60.10
2019-01-25T19:57:48.336Z,61.73
2019-01-25T20:02:56.511Z,63.27
2019-01-25T20:08:04.553Z,62.80
2019-01-25T20:13:12.767Z,67.99
2019-01-25T20:18:21.201Z,65.43
2019-01-25T20:23:29.400Z,64.04
2019-01-25T20:28:37.416Z,71.13
2019-01-25T20:33:46.141Z,73.35
2019-01-25T20:38:54.404Z,77.07
2019-01-25T20:44:02.761Z,80.99
2019-01-25T20:49:10.937Z,76.20
2019-01-25T20:54:19.159Z,75.94
2019-01-25T20:59:27.210Z,81.72
2019-01-25T21:04:35.423Z,84.83
2019-01-25T21:09:43.512Z,83.62
2019-01-25T21:14:51.749Z,76.77
2019-01-25T21:19:59.775Z,83.97
2019-01-25T21:25:07.781Z,79.15
2019-01-25T21:30:16.290Z,85.72
2019-01-25T21:35:24.833Z,84.34
2019-01-25T21:40:35.037Z,86.23
2019-01-25T21:45:33.956Z,84.74
2019-01-25T21:50:41.999Z,85.99
2019-01-25T21:55:50.125Z,80.01
2019-01-25T22:00:58.174Z,77.78
2019-01-25T22:06:06.341Z,80.83
2019-01-25T22:11:14.383Z,77.11
2019-01-25T22:16:22.462Z,76.88
2019-01-25T22:21:30.593Z,72.95
2019-01-25T22:26:38.913Z,65.68
2019-01-25T22:31:46.957Z,76.17
2019-01-25T22:36:55.774Z,67.14
2019-01-25T22:42:03.761Z,72.02
2019-01-25T22:47:11.913Z,68.18
2019-01-25T22:52:19.942Z,70.56
2019-01-25T22:57:28.366Z,74.53
2019-01-25T23:02:36.597Z,69.96
2019-01-25T23:07:44.691Z,75.93
2019-01-25T23:12:52.680Z,74.04
2019-01-25T23:18:01.126Z,68.09
2019-01-25T23:23:09.144Z,69.39
2019-01-25T23:28:17.372Z,64.62
2019-01-25T23:33:25.704Z,60.57
2019-01-25T23:38:34.137Z,56.65
2019-01-25T23:43:42.140Z,53.21
2019-01-25T23:48:50.281Z,53.50
2019-01-25T23:53:58.373Z,44.71
2019-01-25T23:59:06.544Z,53.33
